CheckWX is a tool to help pilots better visualize weather data.  It is not intended as a substitute for an official pre-flight weather briefing.

01:52:54 UTC

OLBA TAF
Beirut Rafic Hariri International Airport
Beirut, Lebanon
TAF OLBA 182200Z 1900/2006 14004KT 6000 NSC BECMG 1907/1909 35010KT BECMG 1918/1920 14004KT CAVOK

Mar-19@
00:00 UTC

Mar-19 @ 00:00 UTC

Mar-19@
07:00 UTC

Mar-19 @ 07:00 UTC

TAF OLBA 182200Z 1900/2006 14004KT 6000 NSC
Wind
  • 140° at 4 KTS
Cloud Levels
  • No significant clouds

Mar-19@
07:00 UTC

Mar-19 @ 07:00 UTC

Mar-19@
18:00 UTC

Mar-19 @ 18:00 UTC

BECMG 1907/1909 35010KT

Becoming

Becoming Conditions expected by Tue, Mar 19, 2019 @ 09:00 UTC

Wind
  • 350° at 10 KTS
Cloud Levels
  • No significant clouds

Mar-19@
18:00 UTC

Mar-19 @ 18:00 UTC

Mar-20@
06:00 UTC

Mar-20 @ 06:00 UTC

BECMG 1918/1920 14004KT CAVOK

Becoming

Becoming Conditions expected by Tue, Mar 19, 2019 @ 20:00 UTC

Wind
  • 140° at 4 KTS
Conditions
No significant weather
Cloud Levels
  • No significant clouds